createdAt,value
2023-03-02T00:02:04.028Z,0.27
2023-03-02T00:04:37.914Z,0.26
2023-03-02T00:07:09.799Z,0.23
2023-03-02T00:09:41.539Z,0.20
2023-03-02T00:12:09.857Z,0.18
2023-03-02T00:14:38.170Z,0.17
2023-03-02T00:17:10.528Z,0.18
2023-03-02T00:19:44.779Z,0.18
2023-03-02T00:22:12.750Z,0.16
2023-03-02T00:24:41.143Z,0.15
2023-03-02T00:27:10.048Z,0.15
2023-03-02T00:29:38.309Z,0.13
2023-03-02T00:32:06.708Z,0.13
2023-03-02T00:34:34.761Z,0.13
2023-03-02T00:37:02.998Z,0.12
2023-03-02T00:39:31.207Z,0.09
2023-03-02T00:42:02.352Z,0.05
2023-03-02T00:44:33.032Z,0.04
2023-03-02T00:47:01.299Z,0.02
2023-03-02T00:49:29.655Z,0.02
2023-03-02T00:51:57.811Z,0.00
2023-03-02T00:54:26.016Z,-0.00
2023-03-02T00:56:54.368Z,-0.00
2023-03-02T00:59:29.182Z,-0.00
2023-03-02T01:02:11.389Z,-0.03
2023-03-02T01:04:46.350Z,-0.04
2023-03-02T01:07:20.773Z,-0.05
2023-03-02T06:02:39.802Z,-1.41
2023-03-02T06:05:22.068Z,-1.37
2023-03-02T06:07:51.230Z,-1.31
2023-03-02T06:10:25.198Z,-1.29
2023-03-02T06:12:54.632Z,-1.26
2023-03-02T06:15:21.676Z,-1.23
2023-03-02T06:17:53.021Z,-1.19
2023-03-02T06:20:21.641Z,-1.16
2023-03-02T06:22:48.651Z,-1.15
2023-03-02T06:25:20.824Z,-1.11
2023-03-02T06:27:52.960Z,-1.07
2023-03-02T06:30:22.622Z,-1.02
2023-03-02T06:32:51.527Z,-0.99
2023-03-02T06:35:20.982Z,-0.95
2023-03-02T06:37:47.887Z,-0.90
2023-03-02T06:40:16.990Z,-0.84
2023-03-02T06:42:48.367Z,-0.80
2023-03-02T06:45:14.950Z,-0.75
2023-03-02T06:47:41.664Z,-0.72
2023-03-02T06:50:09.412Z,-0.69
2023-03-02T06:52:35.999Z,-0.62
2023-03-02T06:55:06.205Z,-0.57
2023-03-02T06:57:33.312Z,-0.52
2023-03-02T07:00:03.592Z,-0.47
2023-03-02T07:02:30.272Z,-0.43
2023-03-02T07:04:59.306Z,-0.38
2023-03-02T07:07:25.949Z,-0.32
2023-03-02T07:10:00.313Z,-0.28
2023-03-02T07:12:29.092Z,-0.22
2023-03-02T07:15:00.168Z,-0.19
2023-03-02T07:17:29.365Z,-0.15
2023-03-02T07:19:59.477Z,-0.14
2023-03-02T07:22:26.058Z,-0.14
2023-03-02T07:24:57.291Z,-0.11
2023-03-02T07:27:26.314Z,-0.09
2023-03-02T07:29:55.482Z,-0.07
2023-03-02T07:32:26.867Z,-0.05
2023-03-02T07:34:56.450Z,0.01
2023-03-02T07:37:22.954Z,0.06
2023-03-02T07:39:54.400Z,0.10
2023-03-02T07:42:21.295Z,0.15
2023-03-02T07:44:56.662Z,0.18
2023-03-02T07:47:23.618Z,0.22
2023-03-02T07:49:50.277Z,0.25
2023-03-02T07:52:20.116Z,0.28
2023-03-02T07:54:49.275Z,0.32
2023-03-02T07:57:20.941Z,0.35
2023-03-02T07:59:47.760Z,0.38
2023-03-02T08:02:19.861Z,0.43
2023-03-02T08:04:57.048Z,0.46
2023-03-02T08:07:25.865Z,0.50
2023-03-02T08:09:52.657Z,0.54
2023-03-02T08:12:22.646Z,0.59
2023-03-02T08:14:49.593Z,0.61
2023-03-02T08:17:18.828Z,0.64
2023-03-02T08:19:51.306Z,0.68
2023-03-02T08:22:18.046Z,0.72
2023-03-02T08:24:45.006Z,0.75
2023-03-02T08:27:15.858Z,0.80
2023-03-02T08:29:42.577Z,0.83
2023-03-02T08:32:14.722Z,0.86
2023-03-02T08:34:42.420Z,0.90
2023-03-02T08:37:11.262Z,0.93
2023-03-02T08:39:40.160Z,0.97
2023-03-02T08:42:09.048Z,0.98
2023-03-02T08:44:40.673Z,1.02
2023-03-02T08:47:09.869Z,1.03
2023-03-02T08:49:39.779Z,1.08
2023-03-02T08:52:06.477Z,1.13
2023-03-02T08:54:40.022Z,1.18
2023-03-02T08:57:14.049Z,1.23
2023-03-02T08:59:45.605Z,1.30
2023-03-02T09:02:12.471Z,1.39
2023-03-02T09:04:45.980Z,1.47
2023-03-02T09:07:16.694Z,1.53
2023-03-02T09:09:45.710Z,1.64
2023-03-02T09:12:14.997Z,1.78
2023-03-02T09:14:43.931Z,2.01
2023-03-02T09:17:12.294Z,2.16
2023-03-02T09:19:44.658Z,2.24
2023-03-02T09:22:16.342Z,2.32
2023-03-02T09:24:45.686Z,2.43
2023-03-02T09:27:14.913Z,2.49
2023-03-02T09:29:43.521Z,2.54
2023-03-02T09:32:11.292Z,2.57
2023-03-02T09:34:45.214Z,2.56
2023-03-02T09:37:19.327Z,2.56
2023-03-02T09:39:45.905Z,2.58
2023-03-02T09:42:27.104Z,2.60
2023-03-02T09:45:24.281Z,2.64
2023-03-02T09:48:14.126Z,2.69
2023-03-02T09:50:59.997Z,2.75
2023-03-02T09:53:38.180Z,2.79
2023-03-02T09:56:15.497Z,2.83
2023-03-02T09:58:57.422Z,2.87
2023-03-02T10:01:40.893Z,2.92
2023-03-02T10:04:16.198Z,2.97
2023-03-02T10:06:42.910Z,3.02
2023-03-02T10:09:10.267Z,3.04
2023-03-02T10:11:49.830Z,3.03
2023-03-02T10:14:28.734Z,3.04
2023-03-02T10:17:26.904Z,3.06
2023-03-02T10:20:01.903Z,3.08
2023-03-02T10:22:34.613Z,3.08
2023-03-02T10:25:22.517Z,3.12
2023-03-02T10:28:03.342Z,3.14
2023-03-02T10:30:36.507Z,3.17
2023-03-02T10:33:13.584Z,3.22
2023-03-02T10:35:48.540Z,3.24
2023-03-02T10:38:22.949Z,3.30
2023-03-02T10:40:59.123Z,3.29
2023-03-02T10:43:36.428Z,3.31
2023-03-02T10:46:10.351Z,3.34
2023-03-02T10:49:01.170Z,3.37
2023-03-02T10:51:44.415Z,3.40
2023-03-02T10:54:16.376Z,3.43
2023-03-02T10:56:55.009Z,3.44
2023-03-02T10:59:44.881Z,3.45
2023-03-02T11:02:22.634Z,3.49
2023-03-02T11:05:20.809Z,3.56
2023-03-02T11:07:57.948Z,3.63
2023-03-02T11:10:31.303Z,3.65
2023-03-02T11:13:02.073Z,3.68
2023-03-02T11:15:31.453Z,3.71
2023-03-02T11:18:04.119Z,3.72
2023-03-02T11:20:32.543Z,3.74
2023-03-02T11:23:15.410Z,3.76
2023-03-02T11:25:54.513Z,3.77
2023-03-02T11:28:39.529Z,3.74
2023-03-02T11:31:12.400Z,3.74
2023-03-02T11:34:15.607Z,3.76
2023-03-02T11:36:58.345Z,3.77
2023-03-02T11:39:34.298Z,3.80
2023-03-02T11:42:06.542Z,3.85
2023-03-02T11:44:35.888Z,3.89
2023-03-02T11:47:04.979Z,3.94
2023-03-02T11:49:45.089Z,4.12
2023-03-02T11:52:33.252Z,4.14
2023-03-02T11:55:17.358Z,4.16
2023-03-02T11:57:49.125Z,4.18
2023-03-02T12:00:32.925Z,4.22
2023-03-02T12:03:18.191Z,4.25
2023-03-02T12:05:53.418Z,4.26
2023-03-02T12:08:20.165Z,4.26
2023-03-02T12:11:17.735Z,4.25
2023-03-02T12:13:58.904Z,4.26
2023-03-02T12:16:35.111Z,4.28
2023-03-02T12:19:17.278Z,4.32
2023-03-02T12:21:54.872Z,4.32
2023-03-02T12:24:28.033Z,4.34
2023-03-02T12:27:14.991Z,4.33
2023-03-02T12:29:44.235Z,4.36
2023-03-02T12:32:20.568Z,4.38
2023-03-02T12:34:59.281Z,4.42
2023-03-02T12:37:30.016Z,4.43
2023-03-02T12:40:34.285Z,4.45
2023-03-02T12:43:19.501Z,4.51
2023-03-02T12:46:10.418Z,4.51
2023-03-02T12:48:51.316Z,4.49
2023-03-02T12:51:22.139Z,4.51
2023-03-02T12:54:00.667Z,4.48
2023-03-02T12:56:27.501Z,4.48
2023-03-02T12:58:58.423Z,4.49
2023-03-02T13:01:34.248Z,4.50
2023-03-02T13:04:05.515Z,4.52
2023-03-02T13:06:38.473Z,4.53
2023-03-02T13:37:20.974Z,4.45
2023-03-02T13:39:57.524Z,4.53
2023-03-02T13:42:37.688Z,4.53
2023-03-02T13:45:23.015Z,4.53
2023-03-02T13:47:52.636Z,4.56
2023-03-02T13:50:23.198Z,4.53
2023-03-02T13:52:55.830Z,4.51
2023-03-02T13:55:25.676Z,4.48
2023-03-02T13:57:57.494Z,4.45
2023-03-02T14:00:31.963Z,4.46
2023-03-02T14:03:30.377Z,4.46
2023-03-02T14:05:58.455Z,4.45
2023-03-02T14:08:27.596Z,4.46
2023-03-02T14:10:58.926Z,4.45
2023-03-02T14:13:42.377Z,4.46
2023-03-02T14:16:12.616Z,4.46
2023-03-02T14:18:44.269Z,4.46
2023-03-02T14:21:21.773Z,4.47
2023-03-02T14:23:48.707Z,4.48
2023-03-02T14:26:19.568Z,4.48
2023-03-02T14:28:53.563Z,4.49
2023-03-02T14:31:28.797Z,4.49
2023-03-02T14:33:55.250Z,4.49
2023-03-02T14:36:34.197Z,4.50
2023-03-02T14:39:17.732Z,4.50
2023-03-02T14:41:54.089Z,4.48
2023-03-02T14:44:26.088Z,4.46
2023-03-02T14:46:52.972Z,4.46
2023-03-02T14:49:20.107Z,4.44
2023-03-02T14:51:58.365Z,4.43
2023-03-02T14:54:35.869Z,4.43
2023-03-02T14:57:16.321Z,4.43
2023-03-02T14:59:45.145Z,4.44
2023-03-02T15:02:24.247Z,4.44
2023-03-02T15:04:55.788Z,4.43
2023-03-02T15:07:26.755Z,4.44
2023-03-02T15:09:57.190Z,4.44
2023-03-02T15:12:24.329Z,4.42
2023-03-02T15:14:53.382Z,4.43
2023-03-02T15:17:20.210Z,4.43
2023-03-02T15:19:49.296Z,4.41
2023-03-02T15:22:15.868Z,4.40
2023-03-02T15:24:43.261Z,4.38
2023-03-02T15:27:10.199Z,4.36
2023-03-02T15:29:43.354Z,4.34
2023-03-02T15:32:10.275Z,4.34
2023-03-02T15:34:39.581Z,4.35
2023-03-02T15:37:06.910Z,4.33
2023-03-02T15:39:36.005Z,4.32
2023-03-02T15:42:02.909Z,4.30
2023-03-02T15:44:32.814Z,4.29
2023-03-02T15:47:02.068Z,4.30
2023-03-02T15:49:33.356Z,4.30
2023-03-02T15:52:02.380Z,4.26
2023-03-02T15:54:31.300Z,4.25
2023-03-02T15:57:00.417Z,4.23
2023-03-02T15:59:28.165Z,4.20
2023-03-02T16:01:58.813Z,4.17
2023-03-02T16:04:29.462Z,4.15
2023-03-02T16:06:58.781Z,4.12
2023-03-02T16:09:28.152Z,4.09
2023-03-02T16:11:59.610Z,4.06
2023-03-02T16:14:26.548Z,4.03
2023-03-02T16:16:57.956Z,3.99
2023-03-02T16:19:29.650Z,3.97
2023-03-02T16:21:58.757Z,3.96
2023-03-02T16:24:25.499Z,3.94
2023-03-02T16:26:52.752Z,3.92
2023-03-02T16:29:19.616Z,3.91
2023-03-02T16:31:46.584Z,3.88
2023-03-02T16:34:13.657Z,3.86
2023-03-02T16:36:41.458Z,3.82
2023-03-02T16:39:11.294Z,3.79
2023-03-02T16:41:39.410Z,3.78
2023-03-02T16:44:09.561Z,3.76
2023-03-02T16:46:38.665Z,3.74
2023-03-02T16:49:08.537Z,3.74
2023-03-02T16:51:37.815Z,3.72
2023-03-02T16:54:08.300Z,3.69
2023-03-02T16:56:41.111Z,3.65
2023-03-02T16:59:07.599Z,3.65
2023-03-02T17:01:39.006Z,3.64
2023-03-02T17:04:06.090Z,3.63
2023-03-02T17:06:34.953Z,3.61
2023-03-02T17:09:04.210Z,3.62
2023-03-02T17:11:33.223Z,3.61
2023-03-02T17:13:59.782Z,3.59
2023-03-02T17:16:31.210Z,3.57
2023-03-02T17:18:57.710Z,3.56
2023-03-02T17:21:28.786Z,3.53
2023-03-02T17:24:00.340Z,3.51
2023-03-02T17:26:29.505Z,3.48
2023-03-02T17:28:59.348Z,3.46
2023-03-02T17:31:26.093Z,3.43
2023-03-02T17:33:55.595Z,3.42
2023-03-02T17:36:22.042Z,3.42
2023-03-02T17:38:48.714Z,3.42
2023-03-02T17:41:17.642Z,3.42
2023-03-02T17:43:44.213Z,3.42
2023-03-02T17:46:22.654Z,3.42
2023-03-02T17:48:54.044Z,3.40
2023-03-02T17:51:24.374Z,3.39
2023-03-02T17:53:54.328Z,3.37
2023-03-02T17:56:25.700Z,3.36
2023-03-02T17:59:01.362Z,3.35
2023-03-02T18:01:31.984Z,3.35
2023-03-02T18:04:04.118Z,3.34
2023-03-02T18:06:35.443Z,3.33
2023-03-02T18:09:07.196Z,3.31
2023-03-02T18:11:40.680Z,3.31
2023-03-02T18:14:15.583Z,3.31
2023-03-02T18:16:45.016Z,3.27
2023-03-02T18:19:12.078Z,3.28
2023-03-02T18:21:41.897Z,3.28
2023-03-02T18:24:11.164Z,3.28
2023-03-02T18:26:43.236Z,3.28
2023-03-02T18:29:09.682Z,3.28
2023-03-02T18:31:43.103Z,3.28
2023-03-02T18:34:14.301Z,3.28
2023-03-02T18:36:46.164Z,3.28
2023-03-02T18:39:17.394Z,3.27
2023-03-02T18:41:49.412Z,3.27
2023-03-02T18:44:19.235Z,3.26
2023-03-02T18:46:48.428Z,3.27
2023-03-02T18:49:15.061Z,3.28
2023-03-02T18:51:42.661Z,3.29
2023-03-02T18:54:09.081Z,3.28
2023-03-02T18:56:39.895Z,3.26
2023-03-02T18:59:13.286Z,3.24
2023-03-02T19:01:40.243Z,3.20
2023-03-02T19:04:09.583Z,3.17
2023-03-02T19:06:38.350Z,3.15
2023-03-02T19:09:07.296Z,3.16
2023-03-02T19:11:36.900Z,3.15
2023-03-02T19:14:03.336Z,3.14
2023-03-02T19:16:29.972Z,3.14
2023-03-02T19:18:56.963Z,3.14
2023-03-02T19:21:23.866Z,3.15
2023-03-02T19:23:55.136Z,3.17
2023-03-02T19:26:26.435Z,3.17
2023-03-02T19:28:55.441Z,3.18
2023-03-02T19:31:23.441Z,3.18
2023-03-02T19:33:55.718Z,3.16
2023-03-02T19:36:22.361Z,3.16
2023-03-02T19:38:49.250Z,3.16
2023-03-02T19:41:19.884Z,3.17
2023-03-02T19:43:49.242Z,3.19
2023-03-02T19:46:19.633Z,3.19
2023-03-02T19:48:48.741Z,3.19
2023-03-02T19:51:15.970Z,3.17
2023-03-02T19:53:46.350Z,3.16
2023-03-02T19:56:14.966Z,3.17
2023-03-02T19:58:48.672Z,3.16
2023-03-02T20:01:20.956Z,3.15
2023-03-02T20:03:52.384Z,3.16
2023-03-02T20:06:21.650Z,3.16
2023-03-02T20:08:51.614Z,3.15
2023-03-02T20:11:20.579Z,3.14
2023-03-02T20:13:50.002Z,3.11
2023-03-02T20:16:18.859Z,3.07
2023-03-02T20:18:51.957Z,3.02
2023-03-02T20:21:25.537Z,3.00
2023-03-02T20:23:54.736Z,2.98
2023-03-02T20:26:26.663Z,2.97
2023-03-02T20:29:00.321Z,2.95
2023-03-02T20:31:31.656Z,2.93
2023-03-02T20:34:05.115Z,2.92
2023-03-02T20:36:33.806Z,2.91
2023-03-02T20:39:05.516Z,2.87
2023-03-02T20:41:35.772Z,2.82
2023-03-02T20:44:05.903Z,2.78
2023-03-02T20:46:37.246Z,2.76
2023-03-02T20:49:09.063Z,2.73
2023-03-02T20:51:39.561Z,2.69
2023-03-02T20:54:14.270Z,2.64
2023-03-02T20:56:44.019Z,2.58
2023-03-02T20:59:12.007Z,2.54
2023-03-02T21:01:43.567Z,2.50
2023-03-02T21:04:14.146Z,2.46
2023-03-02T21:06:41.045Z,2.42
2023-03-02T21:09:09.318Z,2.39
2023-03-02T21:11:37.285Z,2.36
2023-03-02T21:14:06.532Z,2.32
2023-03-02T21:16:37.889Z,2.29
2023-03-02T21:19:08.951Z,2.28
2023-03-02T21:21:41.889Z,2.28
2023-03-02T21:24:17.693Z,2.28
2023-03-02T21:26:46.814Z,2.30
2023-03-02T21:29:16.520Z,2.32
2023-03-02T21:31:43.390Z,2.33
2023-03-02T21:34:15.172Z,2.33
2023-03-02T21:36:42.081Z,2.34
2023-03-02T21:39:12.932Z,2.35
2023-03-02T21:41:41.967Z,2.36
2023-03-02T21:44:10.928Z,2.36
2023-03-02T21:46:38.423Z,2.34
2023-03-02T21:49:07.853Z,2.32
2023-03-02T21:51:35.140Z,2.28
2023-03-02T21:54:01.769Z,2.25
2023-03-02T21:56:28.209Z,2.20
2023-03-02T21:59:01.841Z,2.16
2023-03-02T22:01:29.186Z,2.13
2023-03-02T22:03:59.267Z,2.09
2023-03-02T22:06:29.067Z,2.06
2023-03-02T22:09:02.088Z,2.04
2023-03-02T22:11:32.616Z,2.02
2023-03-02T22:14:09.712Z,2.01
2023-03-02T22:16:41.203Z,1.98
2023-03-02T22:19:26.315Z,1.97
2023-03-02T22:21:55.909Z,1.97
2023-03-02T22:24:34.375Z,1.95
2023-03-02T22:27:03.793Z,1.96
2023-03-02T22:29:45.205Z,1.97
2023-03-02T22:32:25.217Z,1.99
2023-03-02T22:35:08.934Z,2.01
2023-03-02T22:37:38.739Z,2.02
2023-03-02T22:40:33.146Z,2.05
2023-03-02T22:43:25.083Z,2.07
2023-03-02T22:45:53.315Z,2.08
2023-03-02T22:48:21.825Z,2.09
2023-03-02T22:50:55.408Z,2.11
2023-03-02T22:53:33.312Z,2.13
2023-03-02T22:56:15.525Z,2.14
2023-03-02T22:58:49.553Z,2.15
2023-03-02T23:01:26.556Z,2.14
2023-03-02T23:03:57.634Z,2.14
2023-03-02T23:06:28.202Z,2.13
2023-03-02T23:09:00.128Z,2.15
2023-03-02T23:11:35.223Z,2.16
2023-03-02T23:14:08.773Z,2.16
2023-03-02T23:16:35.788Z,2.18
2023-03-02T23:19:04.231Z,2.19
2023-03-02T23:21:40.508Z,2.19
2023-03-02T23:24:07.830Z,2.19
2023-03-02T23:26:34.551Z,2.19
2023-03-02T23:29:06.932Z,2.20
2023-03-02T23:31:35.711Z,2.18
2023-03-02T23:34:07.410Z,2.20
2023-03-02T23:36:39.067Z,2.20
2023-03-02T23:39:08.946Z,2.20
2023-03-02T23:41:38.394Z,2.19
2023-03-02T23:44:06.329Z,2.20
2023-03-02T23:46:35.128Z,2.22
2023-03-02T23:49:04.783Z,2.23
2023-03-02T23:51:33.546Z,2.20
2023-03-02T23:54:04.722Z,2.20
2023-03-02T23:56:31.544Z,2.18
2023-03-02T23:59:02.920Z,2.19
